createdAt,value
2023-10-03T00:00:50.863Z,97986.28
2023-10-03T00:05:52.607Z,97992.97
2023-10-03T00:10:54.517Z,97988.94
2023-10-03T00:15:55.873Z,97975.75
2023-10-03T00:20:57.267Z,97969.16
2023-10-03T00:26:00.320Z,97962.13
2023-10-03T00:31:01.979Z,97962.13
2023-10-03T00:36:04.350Z,97940.84
2023-10-03T00:41:06.539Z,97933.94
2023-10-03T00:46:08.541Z,97927.03
2023-10-03T00:51:10.108Z,97924.91
2023-10-03T00:56:11.589Z,97920.09
2023-10-03T01:01:13.427Z,97917.38
2023-10-03T01:06:16.454Z,97905.75
2023-10-03T01:11:18.910Z,97903.28
2023-10-03T01:16:28.873Z,97896.22
2023-10-03T01:21:31.298Z,97891.88
2023-10-03T01:26:35.787Z,97895.06
2023-10-03T01:31:37.217Z,97895.06
2023-10-03T01:36:40.937Z,97883.19
2023-10-03T01:41:43.553Z,97875.06
2023-10-03T01:46:46.520Z,97869.66
2023-10-03T01:51:47.981Z,97873.44
2023-10-03T01:56:49.430Z,97875.53
2023-10-03T02:01:50.949Z,97869.31
2023-10-03T02:06:53.562Z,97866.00
2023-10-03T02:11:55.714Z,97852.28
2023-10-03T02:16:58.603Z,97848.50
2023-10-03T02:22:00.581Z,97830.66
2023-10-03T02:27:07.310Z,97817.34
2023-10-03T02:32:09.551Z,97807.47
2023-10-03T02:37:13.747Z,97816.31
2023-10-03T02:42:15.741Z,97814.06
2023-10-03T02:47:17.348Z,97801.84
2023-10-03T02:52:19.888Z,97788.34
2023-10-03T02:57:22.080Z,97770.25
2023-10-03T03:02:23.571Z,97759.91
2023-10-03T03:07:28.720Z,97741.69
2023-10-03T03:12:30.615Z,97743.00
2023-10-03T03:17:32.172Z,97742.16
2023-10-03T03:22:33.904Z,97728.50
2023-10-03T03:27:42.122Z,97718.97
2023-10-03T03:32:43.567Z,97716.53
2023-10-03T03:37:45.083Z,97711.94
2023-10-03T03:42:46.700Z,97709.47
2023-10-03T03:47:51.488Z,97701.59
2023-10-03T03:52:54.281Z,97693.38
2023-10-03T03:57:55.994Z,97676.34
2023-10-03T04:03:02.306Z,97679.31
2023-10-03T04:08:05.990Z,97670.59
2023-10-03T04:13:11.522Z,97667.78
2023-10-03T04:18:14.567Z,97664.38
2023-10-03T04:23:15.985Z,97655.56
2023-10-03T04:28:17.669Z,97650.28
2023-10-03T04:33:22.271Z,97644.50
2023-10-03T04:38:23.882Z,97647.19
2023-10-03T04:43:28.232Z,97645.44
2023-10-03T04:48:29.760Z,97635.59
2023-10-03T04:53:31.456Z,97639.81
2023-10-03T04:58:32.866Z,97644.06
2023-10-03T05:03:34.369Z,97644.75
2023-10-03T05:08:35.958Z,97643.81
2023-10-03T05:13:37.719Z,97642.53
2023-10-03T05:18:40.835Z,97644.31
2023-10-03T05:23:42.497Z,97641.16
2023-10-03T05:28:45.806Z,97636.09
2023-10-03T05:33:47.337Z,97628.09
2023-10-03T05:38:48.977Z,97630.44
2023-10-03T05:43:50.652Z,97623.84
2023-10-03T05:48:53.219Z,97631.81
2023-10-03T05:53:55.144Z,97623.84
2023-10-03T05:58:56.563Z,97625.31
2023-10-03T06:03:58.742Z,97624.38
2023-10-03T06:09:01.406Z,97621.53
2023-10-03T06:14:04.808Z,97631.38
2023-10-03T06:19:08.491Z,97612.28
2023-10-03T06:24:09.929Z,97601.91
2023-10-03T06:29:11.330Z,97606.50
2023-10-03T06:34:12.887Z,97602.41
2023-10-03T06:39:14.340Z,97595.63
2023-10-03T06:44:15.733Z,97610.81
2023-10-03T06:49:18.746Z,97594.88
2023-10-03T06:54:20.151Z,97607.25
2023-10-03T06:59:21.568Z,97603.91
2023-10-03T07:04:23.028Z,97609.22
2023-10-03T07:09:24.495Z,97601.31
2023-10-03T07:14:25.952Z,97592.59
2023-10-03T07:19:27.350Z,97595.00
2023-10-03T07:24:30.090Z,97590.00
2023-10-03T07:29:31.605Z,97585.81
2023-10-03T07:34:33.041Z,97572.56
2023-10-03T07:39:34.387Z,97578.84
2023-10-03T07:44:37.263Z,97572.41
2023-10-03T07:49:38.813Z,97565.75
2023-10-03T07:54:40.232Z,97567.19
2023-10-03T07:59:44.668Z,97570.06
2023-10-03T08:04:49.342Z,97553.31
2023-10-03T08:09:50.992Z,97561.31
2023-10-03T08:14:54.055Z,97548.59
2023-10-03T08:19:56.121Z,97540.44
2023-10-03T08:24:57.488Z,97523.13
2023-10-03T08:29:59.571Z,97525.94
2023-10-03T08:35:01.123Z,97518.09
2023-10-03T08:40:02.572Z,97527.47
2023-10-03T08:45:17.920Z,97537.06
2023-10-03T08:50:36.244Z,97534.69
2023-10-03T08:55:39.495Z,97518.66
2023-10-03T09:00:43.776Z,97507.19
2023-10-03T09:05:45.734Z,97502.25
2023-10-03T09:10:54.232Z,97499.16
2023-10-03T09:16:08.312Z,97488.94
2023-10-03T09:21:17.120Z,97499.28
2023-10-03T09:26:20.613Z,97494.72
2023-10-03T09:31:23.340Z,97496.69
2023-10-03T09:36:29.509Z,97489.06
2023-10-03T09:41:31.365Z,97492.84
2023-10-03T09:46:41.671Z,97482.66
2023-10-03T09:51:52.442Z,97485.91
2023-10-03T09:56:56.919Z,97480.16
2023-10-03T10:02:00.678Z,97481.19
2023-10-03T10:07:18.200Z,97475.13
2023-10-03T10:12:20.459Z,97469.31
2023-10-03T10:17:22.564Z,97463.75
2023-10-03T10:22:28.085Z,97461.97
2023-10-03T10:27:30.506Z,97459.25
2023-10-03T10:32:32.319Z,97465.75
2023-10-03T10:37:50.819Z,97479.56
2023-10-03T10:42:55.948Z,97469.66
2023-10-03T10:47:57.700Z,97456.44
2023-10-03T10:53:03.832Z,97456.09
2023-10-03T10:58:13.147Z,97456.28
2023-10-03T11:03:21.069Z,97445.56
2023-10-03T11:08:22.917Z,97450.00
2023-10-03T11:13:24.957Z,97441.56
2023-10-03T11:18:30.547Z,97439.25
2023-10-03T11:23:32.318Z,97420.56
2023-10-03T11:28:44.612Z,97413.94
2023-10-03T11:33:46.922Z,97412.16
2023-10-03T11:38:50.313Z,97409.44
2023-10-03T11:43:51.700Z,97414.31
2023-10-03T11:48:59.984Z,97403.81
2023-10-03T11:54:01.435Z,97409.78
2023-10-03T11:59:03.020Z,97393.38
2023-10-03T12:04:04.878Z,97398.34
2023-10-03T12:09:10.409Z,97397.00
2023-10-03T12:14:11.997Z,97403.22
2023-10-03T12:19:13.389Z,97398.19
2023-10-03T12:24:15.236Z,97392.09
2023-10-03T12:29:16.653Z,97394.31
2023-10-03T12:34:18.395Z,97403.66
2023-10-03T12:39:22.048Z,97403.22
2023-10-03T12:44:23.789Z,97402.19
2023-10-03T12:49:25.674Z,97410.44
2023-10-03T12:54:28.105Z,97414.81
2023-10-03T12:59:29.475Z,97426.38
2023-10-03T13:04:30.928Z,97419.06
2023-10-03T13:09:32.428Z,97429.53
2023-10-03T13:14:34.053Z,97433.69
2023-10-03T13:19:35.756Z,97431.19
2023-10-03T13:24:37.962Z,97434.78
2023-10-03T13:29:40.468Z,97440.13
2023-10-03T13:34:42.240Z,97452.31
2023-10-03T13:39:43.682Z,97449.13
2023-10-03T13:44:48.937Z,97480.38
2023-10-03T13:49:50.593Z,97472.22
2023-10-03T13:54:52.010Z,97470.66
2023-10-03T13:59:53.881Z,97480.84
2023-10-03T14:04:55.432Z,97475.75
2023-10-03T14:09:56.899Z,97470.03
2023-10-03T14:14:58.899Z,97464.56
2023-10-03T14:20:00.645Z,97461.03
2023-10-03T14:25:02.073Z,97473.09
2023-10-03T14:30:05.035Z,97460.72
2023-10-03T14:35:08.987Z,97465.75
2023-10-03T14:40:16.740Z,97467.19
2023-10-03T14:45:20.505Z,97463.69
2023-10-03T14:50:23.909Z,97461.25
2023-10-03T14:55:28.830Z,97459.38
2023-10-03T15:00:30.326Z,97473.09
2023-10-03T15:05:31.728Z,97478.91
2023-10-03T15:10:33.607Z,97467.75
2023-10-03T15:15:35.012Z,97486.09
2023-10-03T15:20:36.438Z,97494.13
2023-10-03T15:25:40.050Z,97476.50
2023-10-03T15:30:49.529Z,97477.38
2023-10-03T15:35:51.743Z,97478.53
2023-10-03T15:40:53.376Z,97464.94
2023-10-03T15:45:54.819Z,97446.16
2023-10-03T15:50:56.395Z,97440.47
2023-10-03T15:55:59.442Z,97454.72
2023-10-03T16:01:00.955Z,97463.69
2023-10-03T16:06:02.470Z,97452.47
2023-10-03T16:11:05.278Z,97446.88
2023-10-03T16:16:06.909Z,97450.03
2023-10-03T16:21:08.503Z,97448.19
2023-10-03T16:26:09.961Z,97453.75
2023-10-03T16:31:12.170Z,97456.16
2023-10-03T16:36:13.597Z,97466.97
2023-10-03T16:41:15.033Z,97482.75
2023-10-03T16:46:16.750Z,97544.19
2023-10-03T16:51:18.850Z,97607.25
2023-10-03T16:56:20.301Z,97645.50
2023-10-03T17:01:21.691Z,97675.28
2023-10-03T17:06:23.270Z,97672.75
2023-10-03T17:11:26.789Z,97682.09
2023-10-03T17:16:28.790Z,97704.72
2023-10-03T17:21:30.392Z,97720.75
2023-10-03T17:26:32.420Z,97743.59
2023-10-03T17:31:33.791Z,97776.25
2023-10-03T17:36:35.471Z,97774.28
2023-10-03T17:41:37.841Z,97750.34
2023-10-03T17:46:39.332Z,97779.53
2023-10-03T17:51:40.998Z,97789.56
2023-10-03T17:56:42.414Z,97794.16
2023-10-03T18:01:43.873Z,97827.38
2023-10-03T18:06:45.374Z,97839.44
2023-10-03T18:11:48.127Z,97850.22
2023-10-03T18:16:49.549Z,97849.25
2023-10-03T18:21:51.124Z,97859.31
2023-10-03T18:26:52.582Z,97874.59
2023-10-03T18:31:54.006Z,97872.28
2023-10-03T18:36:55.467Z,97877.22
2023-10-03T18:41:56.961Z,97892.38
2023-10-03T18:46:58.437Z,97892.97
2023-10-03T18:51:59.821Z,97894.41
2023-10-03T18:57:01.320Z,97899.34
2023-10-03T19:02:02.861Z,97872.41
2023-10-03T19:07:05.390Z,97884.44
2023-10-03T19:12:07.576Z,97879.94
2023-10-03T19:17:09.084Z,97922.28
2023-10-03T19:22:10.694Z,97909.47
2023-10-03T19:27:12.158Z,97898.34
2023-10-03T19:32:13.695Z,97908.78
2023-10-03T19:37:15.145Z,97923.91
2023-10-03T19:42:17.503Z,97929.09
2023-10-03T19:47:19.047Z,97923.66
2023-10-03T19:52:20.853Z,97919.09
2023-10-03T19:57:22.328Z,98023.34
2023-10-03T20:02:25.156Z,98054.31
2023-10-03T20:07:26.663Z,98087.59
2023-10-03T20:12:28.129Z,98135.25
2023-10-03T20:17:29.868Z,98164.53
2023-10-03T20:22:31.407Z,98193.44
2023-10-03T20:27:33.600Z,98218.09
2023-10-03T20:32:35.077Z,98229.44
2023-10-03T20:37:36.625Z,98253.38
2023-10-03T20:42:39.904Z,98258.88
2023-10-03T20:47:41.637Z,98268.72
2023-10-03T20:52:43.230Z,98295.09
2023-10-03T20:57:44.599Z,98322.53
2023-10-03T21:02:46.051Z,98329.00
2023-10-03T21:07:48.760Z,98346.84
2023-10-03T21:12:51.090Z,98372.47
2023-10-03T21:17:52.745Z,98372.38
2023-10-03T21:22:55.282Z,98387.84
2023-10-03T21:27:56.771Z,98403.09
2023-10-03T21:32:58.230Z,98410.69
2023-10-03T21:37:59.669Z,98413.47
2023-10-03T21:43:02.309Z,98439.03
2023-10-03T21:48:03.963Z,98443.53
2023-10-03T21:53:05.729Z,98448.88
2023-10-03T21:58:07.118Z,98454.16
2023-10-03T22:03:10.098Z,98477.69
2023-10-03T22:08:11.530Z,98471.94
2023-10-03T22:13:16.411Z,98494.69
2023-10-03T22:18:17.859Z,98506.31
2023-10-03T22:23:21.037Z,98521.31
2023-10-03T22:28:22.521Z,98515.13
2023-10-03T22:33:23.921Z,98526.38
2023-10-03T22:38:25.538Z,98523.44
2023-10-03T22:43:26.908Z,98533.06
2023-10-03T22:48:28.389Z,98533.31
2023-10-03T22:53:29.803Z,98536.81
2023-10-03T22:58:31.184Z,98556.03
2023-10-03T23:03:32.651Z,98554.59
2023-10-03T23:08:34.048Z,98575.09
2023-10-03T23:13:35.890Z,98560.56
2023-10-03T23:18:37.553Z,98569.69
2023-10-03T23:23:39.049Z,98576.44
2023-10-03T23:28:40.762Z,98565.72
2023-10-03T23:33:42.151Z,98573.75
2023-10-03T23:38:43.611Z,98578.63
2023-10-03T23:43:47.149Z,98587.84
2023-10-03T23:48:49.020Z,98596.00
2023-10-03T23:53:50.704Z,98596.00
2023-10-03T23:58:53.280Z,98601.25
